sensor_id;sensor_type;location;lat;lon;timestamp;pressure;altitude;pressure_sealevel;temperature
42119;BMP280;27783;42.782;23.274;2023-03-02T00:01:07;95867.03;;;6.26
42119;BMP280;27783;42.782;23.274;2023-03-02T00:03:35;95871.50;;;6.26
42119;BMP280;27783;42.782;23.274;2023-03-02T00:06:03;95874.03;;;6.22
42119;BMP280;27783;42.782;23.274;2023-03-02T00:08:32;95868.53;;;6.27
42119;BMP280;27783;42.782;23.274;2023-03-02T00:10:58;95864.75;;;6.25
42119;BMP280;27783;42.782;23.274;2023-03-02T00:13:28;95862.28;;;6.32
42119;BMP280;27783;42.782;23.274;2023-03-02T00:15:55;95862.06;;;6.21
42119;BMP280;27783;42.782;23.274;2023-03-02T00:18:21;95857.53;;;6.18
42119;BMP280;27783;42.782;23.274;2023-03-02T00:20:49;95856.78;;;6.18
42119;BMP280;27783;42.782;23.274;2023-03-02T00:23:14;95851.88;;;6.16
42119;BMP280;27783;42.782;23.274;2023-03-02T00:25:40;95851.19;;;6.19
42119;BMP280;27783;42.782;23.274;2023-03-02T00:28:06;95852.56;;;6.14
42119;BMP280;27783;42.782;23.274;2023-03-02T00:30:33;95845.81;;;6.13
42119;BMP280;27783;42.782;23.274;2023-03-02T00:32:59;95842.09;;;6.14
42119;BMP280;27783;42.782;23.274;2023-03-02T00:35:25;95837.56;;;6.11
42119;BMP280;27783;42.782;23.274;2023-03-02T00:37:55;95843.19;;;6.13
42119;BMP280;27783;42.782;23.274;2023-03-02T00:40:21;95844.72;;;6.14
42119;BMP280;27783;42.782;23.274;2023-03-02T00:42:46;95855.63;;;6.16
42119;BMP280;27783;42.782;23.274;2023-03-02T00:45:12;95846.25;;;6.15
42119;BMP280;27783;42.782;23.274;2023-03-02T00:47:38;95837.56;;;6.11
42119;BMP280;27783;42.782;23.274;2023-03-02T00:50:04;95827.94;;;6.15
42119;BMP280;27783;42.782;23.274;2023-03-02T00:52:32;95834.94;;;6.11
42119;BMP280;27783;42.782;23.274;2023-03-02T00:54:57;95829.03;;;6.14
42119;BMP280;27783;42.782;23.274;2023-03-02T00:57:23;95825.25;;;6.11
42119;BMP280;27783;42.782;23.274;2023-03-02T00:59:49;95819.59;;;6.09
42119;BMP280;27783;42.782;23.274;2023-03-02T01:02:23;95816.50;;;6.04
42119;BMP280;27783;42.782;23.274;2023-03-02T01:04:49;95812.03;;;6.04
42119;BMP280;27783;42.782;23.274;2023-03-02T01:07:19;95815.47;;;6.08
42119;BMP280;27783;42.782;23.274;2023-03-02T01:09:50;95800.59;;;6.12
42119;BMP280;27783;42.782;23.274;2023-03-02T01:12:17;95807.56;;;6.05
42119;BMP280;27783;42.782;23.274;2023-03-02T01:14:46;95801.00;;;6.14
42119;BMP280;27783;42.782;23.274;2023-03-02T01:17:12;95802.09;;;6.13
42119;BMP280;27783;42.782;23.274;2023-03-02T01:19:38;95805.06;;;6.12
42119;BMP280;27783;42.782;23.274;2023-03-02T01:22:05;95799.41;;;6.10
42119;BMP280;27783;42.782;23.274;2023-03-02T01:24:30;95799.16;;;6.15
42119;BMP280;27783;42.782;23.274;2023-03-02T01:26:58;95798.78;;;6.16
42119;BMP280;27783;42.782;23.274;2023-03-02T01:29:25;95794.75;;;6.18
42119;BMP280;27783;42.782;23.274;2023-03-02T01:31:51;95799.16;;;6.15
42119;BMP280;27783;42.782;23.274;2023-03-02T01:34:18;95790.06;;;6.09
42119;BMP280;27783;42.782;23.274;2023-03-02T01:36:44;95789.06;;;6.16
42119;BMP280;27783;42.782;23.274;2023-03-02T01:39:13;95784.06;;;6.08
42119;BMP280;27783;42.782;23.274;2023-03-02T01:41:43;95792.00;;;6.12
42119;BMP280;27783;42.782;23.274;2023-03-02T01:44:35;95781.53;;;6.12
42119;BMP280;27783;42.782;23.274;2023-03-02T01:47:26;95790.47;;;6.11
42119;BMP280;27783;42.782;23.274;2023-03-02T01:50:20;95796.47;;;6.11
42119;BMP280;27783;42.782;23.274;2023-03-02T01:52:48;95793.78;;;6.08
42119;BMP280;27783;42.782;23.274;2023-03-02T01:55:19;95795.56;;;6.04
42119;BMP280;27783;42.782;23.274;2023-03-02T01:57:48;95788.81;;;6.03
42119;BMP280;27783;42.782;23.274;2023-03-02T02:00:21;95789.25;;;6.05
42119;BMP280;27783;42.782;23.274;2023-03-02T02:02:49;95781.41;;;6.05
42119;BMP280;27783;42.782;23.274;2023-03-02T02:05:22;95785.81;;;6.01
42119;BMP280;27783;42.782;23.274;2023-03-02T02:07:48;95788.69;;;5.96
42119;BMP280;27783;42.782;23.274;2023-03-02T02:10:14;95790.28;;;6.00
42119;BMP280;27783;42.782;23.274;2023-03-02T02:12:40;95784.28;;;6.00
42119;BMP280;27783;42.782;23.274;2023-03-02T02:15:07;95785.41;;;5.99
42119;BMP280;27783;42.782;23.274;2023-03-02T02:17:34;95781.25;;;5.98
42119;BMP280;27783;42.782;23.274;2023-03-02T02:25:03;95777.25;;;6.04
42119;BMP280;27783;42.782;23.274;2023-03-02T02:27:51;95779.13;;;6.03
42119;BMP280;27783;42.782;23.274;2023-03-02T02:30:22;95784.34;;;6.03
42119;BMP280;27783;42.782;23.274;2023-03-02T02:32:50;95786.69;;;6.08
42119;BMP280;27783;42.782;23.274;2023-03-02T02:35:41;95781.47;;;6.08
42119;BMP280;27783;42.782;23.274;2023-03-02T02:38:09;95782.22;;;6.09
42119;BMP280;27783;42.782;23.274;2023-03-02T02:40:54;95779.88;;;6.04
42119;BMP280;27783;42.782;23.274;2023-03-02T02:43:21;95780.63;;;6.04
42119;BMP280;27783;42.782;23.274;2023-03-02T02:45:51;95780.56;;;6.01
42119;BMP280;27783;42.782;23.274;2023-03-02T02:48:19;95778.34;;;6.03
42119;BMP280;27783;42.782;23.274;2023-03-02T02:50:45;95765.34;;;6.06
42119;BMP280;27783;42.782;23.274;2023-03-02T02:53:19;95775.47;;;6.08
42119;BMP280;27783;42.782;23.274;2023-03-02T02:55:48;95774.66;;;6.04
42119;BMP280;27783;42.782;23.274;2023-03-02T03:01:13;95773.63;;;6.08
42119;BMP280;27783;42.782;23.274;2023-03-02T03:04:04;95765.69;;;6.05
42119;BMP280;27783;42.782;23.274;2023-03-02T03:06:33;95763.16;;;6.08
42119;BMP280;27783;42.782;23.274;2023-03-02T03:09:11;95765.81;;;6.12
42119;BMP280;27783;42.782;23.274;2023-03-02T03:11:40;95758.75;;;6.12
42119;BMP280;27783;42.782;23.274;2023-03-02T03:14:12;95761.69;;;6.11
42119;BMP280;27783;42.782;23.274;2023-03-02T03:16:42;95761.63;;;6.07
42119;BMP280;27783;42.782;23.274;2023-03-02T03:19:28;95756.00;;;6.05
42119;BMP280;27783;42.782;23.274;2023-03-02T03:21:58;95771.00;;;6.08
42119;BMP280;27783;42.782;23.274;2023-03-02T03:24:25;95760.59;;;6.12
42119;BMP280;27783;42.782;23.274;2023-03-02T03:26:55;95761.97;;;6.06
42119;BMP280;27783;42.782;23.274;2023-03-02T03:29:23;95754.88;;;6.06
42119;BMP280;27783;42.782;23.274;2023-03-02T03:31:50;95769.34;;;6.00
42119;BMP280;27783;42.782;23.274;2023-03-02T03:34:18;95770.09;;;6.01
42119;BMP280;27783;42.782;23.274;2023-03-02T03:36:44;95766.53;;;6.09
42119;BMP280;27783;42.782;23.274;2023-03-02T03:39:11;95775.41;;;6.04
42119;BMP280;27783;42.782;23.274;2023-03-02T03:41:37;95765.34;;;6.06
42119;BMP280;27783;42.782;23.274;2023-03-02T03:44:03;95766.78;;;6.04
42119;BMP280;27783;42.782;23.274;2023-03-02T03:46:31;95767.88;;;6.03
42119;BMP280;27783;42.782;23.274;2023-03-02T03:48:58;95767.88;;;6.03
42119;BMP280;27783;42.782;23.274;2023-03-02T03:51:24;95753.59;;;5.97
42119;BMP280;27783;42.782;23.274;2023-03-02T03:53:51;95759.63;;;6.01
42119;BMP280;27783;42.782;23.274;2023-03-02T03:56:32;95767.19;;;6.06
42119;BMP280;27783;42.782;23.274;2023-03-02T03:59:00;95769.47;;;6.07
42119;BMP280;27783;42.782;23.274;2023-03-02T04:01:40;95767.63;;;6.08
42119;BMP280;27783;42.782;23.274;2023-03-02T04:04:10;95765.00;;;6.08
42119;BMP280;27783;42.782;23.274;2023-03-02T04:06:35;95770.16;;;6.04
42119;BMP280;27783;42.782;23.274;2023-03-02T04:09:03;95767.88;;;6.03
42119;BMP280;27783;42.782;23.274;2023-03-02T04:11:31;95768.72;;;6.07
42119;BMP280;27783;42.782;23.274;2023-03-02T04:13:58;95765.28;;;6.03
42119;BMP280;27783;42.782;23.274;2023-03-02T04:16:24;95777.31;;;6.07
42119;BMP280;27783;42.782;23.274;2023-03-02T04:18:52;95770.09;;;6.01
42119;BMP280;27783;42.782;23.274;2023-03-02T04:21:18;95767.09;;;5.99
42119;BMP280;27783;42.782;23.274;2023-03-02T04:23:45;95770.81;;;5.98
42119;BMP280;27783;42.782;23.274;2023-03-02T04:26:12;95758.41;;;5.95
42119;BMP280;27783;42.782;23.274;2023-03-02T04:28:37;95766.19;;;5.92
42119;BMP280;27783;42.782;23.274;2023-03-02T04:31:03;95764.75;;;5.94
42119;BMP280;27783;42.782;23.274;2023-03-02T04:33:28;95764.34;;;5.92
42119;BMP280;27783;42.782;23.274;2023-03-02T04:35:56;95760.91;;;5.88
42119;BMP280;27783;42.782;23.274;2023-03-02T04:38:21;95768.47;;;5.93
42119;BMP280;27783;42.782;23.274;2023-03-02T04:40:48;95771.50;;;5.95
42119;BMP280;27783;42.782;23.274;2023-03-02T04:43:16;95767.09;;;5.99
42119;BMP280;27783;42.782;23.274;2023-03-02T04:45:41;95764.03;;;5.97
42119;BMP280;27783;42.782;23.274;2023-03-02T04:48:07;95774.19;;;5.99
42119;BMP280;27783;42.782;23.274;2023-03-02T04:50:32;95779.06;;;6.00
42119;BMP280;27783;42.782;23.274;2023-03-02T04:52:59;95777.88;;;5.98
42119;BMP280;27783;42.782;23.274;2023-03-02T04:55:25;95784.91;;;5.94
42119;BMP280;27783;42.782;23.274;2023-03-02T04:57:51;95783.44;;;5.96
42119;BMP280;27783;42.782;23.274;2023-03-02T05:00:18;95786.84;;;5.97
42119;BMP280;27783;42.782;23.274;2023-03-02T05:02:45;95769.34;;;6.00
42119;BMP280;27783;42.782;23.274;2023-03-02T05:05:18;95776.66;;;5.92
42119;BMP280;27783;42.782;23.274;2023-03-02T05:07:44;95774.13;;;5.95
42119;BMP280;27783;42.782;23.274;2023-03-02T05:10:12;95771.56;;;5.99
42119;BMP280;27783;42.782;23.274;2023-03-02T05:12:38;95772.19;;;5.92
42119;BMP280;27783;42.782;23.274;2023-03-02T05:15:35;95777.75;;;5.91
42119;BMP280;27783;42.782;23.274;2023-03-02T05:18:01;95774.50;;;5.97
42119;BMP280;27783;42.782;23.274;2023-03-02T05:20:28;95778.22;;;5.96
42119;BMP280;27783;42.782;23.274;2023-03-02T05:22:56;95782.28;;;5.94
42119;BMP280;27783;42.782;23.274;2023-03-02T05:25:21;95778.09;;;5.89
42119;BMP280;27783;42.782;23.274;2023-03-02T05:27:47;95787.88;;;5.92
42119;BMP280;27783;42.782;23.274;2023-03-02T05:30:13;95795.44;;;5.97
42119;BMP280;27783;42.782;23.274;2023-03-02T05:32:39;95797.72;;;5.99
42119;BMP280;27783;42.782;23.274;2023-03-02T05:35:04;95797.44;;;6.03
42119;BMP280;27783;42.782;23.274;2023-03-02T05:37:30;95802.31;;;6.05
42119;BMP280;27783;42.782;23.274;2023-03-02T05:39:56;95801.09;;;5.99
42119;BMP280;27783;42.782;23.274;2023-03-02T05:42:21;95803.09;;;6.05
42119;BMP280;27783;42.782;23.274;2023-03-02T05:44:46;95798.19;;;6.04
42119;BMP280;27783;42.782;23.274;2023-03-02T05:47:12;95801.63;;;6.08
42119;BMP280;27783;42.782;23.274;2023-03-02T05:49:37;95801.97;;;6.06
42119;BMP280;27783;42.782;23.274;2023-03-02T05:52:02;95809.88;;;6.10
42119;BMP280;27783;42.782;23.274;2023-03-02T05:54:28;95806.03;;;6.04
42119;BMP280;27783;42.782;23.274;2023-03-02T05:56:53;95803.81;;;6.06
42119;BMP280;27783;42.782;23.274;2023-03-02T05:59:19;95800.94;;;6.11
42119;BMP280;27783;42.782;23.274;2023-03-02T06:01:44;95805.59;;;6.20
42119;BMP280;27783;42.782;23.274;2023-03-02T06:04:10;95808.91;;;6.17
42119;BMP280;27783;42.782;23.274;2023-03-02T06:06:35;95805.13;;;6.15
42119;BMP280;27783;42.782;23.274;2023-03-02T06:09:00;95814.84;;;6.15
42119;BMP280;27783;42.782;23.274;2023-03-02T06:11:26;95811.53;;;6.17
42119;BMP280;27783;42.782;23.274;2023-03-02T06:13:51;95811.94;;;6.19
42119;BMP280;27783;42.782;23.274;2023-03-02T06:16:17;95807.47;;;6.20
42119;BMP280;27783;42.782;23.274;2023-03-02T06:18:42;95811.53;;;6.17
42119;BMP280;27783;42.782;23.274;2023-03-02T06:21:08;95810.44;;;6.18
42119;BMP280;27783;42.782;23.274;2023-03-02T06:23:33;95825.78;;;6.20
42119;BMP280;27783;42.782;23.274;2023-03-02T06:25:59;95828.88;;;6.25
42119;BMP280;27783;42.782;23.274;2023-03-02T06:28:25;95828.75;;;6.18
42119;BMP280;27783;42.782;23.274;2023-03-02T06:30:50;95825.44;;;6.21
42119;BMP280;27783;42.782;23.274;2023-03-02T06:33:17;95827.50;;;6.31
42119;BMP280;27783;42.782;23.274;2023-03-02T06:35:44;95822.19;;;6.28
42119;BMP280;27783;42.782;23.274;2023-03-02T06:38:10;95825.56;;;6.28
42119;BMP280;27783;42.782;23.274;2023-03-02T06:40:35;95833.41;;;6.28
42119;BMP280;27783;42.782;23.274;2023-03-02T06:43:00;95826.88;;;6.19
42119;BMP280;27783;42.782;23.274;2023-03-02T06:45:26;95831.06;;;6.23
42119;BMP280;27783;42.782;23.274;2023-03-02T06:47:53;95827.81;;;6.30
42119;BMP280;27783;42.782;23.274;2023-03-02T06:50:18;95825.28;;;6.33
42119;BMP280;27783;42.782;23.274;2023-03-02T06:52:44;95830.38;;;6.26
42119;BMP280;27783;42.782;23.274;2023-03-02T06:55:09;95821.50;;;6.31
42119;BMP280;27783;42.782;23.274;2023-03-02T06:57:34;95823.28;;;6.27
42119;BMP280;27783;42.782;23.274;2023-03-02T07:00:02;95814.75;;;6.30
42119;BMP280;27783;42.782;23.274;2023-03-02T07:02:30;95829.75;;;6.32
42119;BMP280;27783;42.782;23.274;2023-03-02T07:04:56;95820.84;;;6.37
42119;BMP280;27783;42.782;23.274;2023-03-02T07:07:21;95820.59;;;6.42
42119;BMP280;27783;42.782;23.274;2023-03-02T07:09:46;95818.75;;;6.46
42119;BMP280;27783;42.782;23.274;2023-03-02T07:12:12;95824.06;;;6.49
42119;BMP280;27783;42.782;23.274;2023-03-02T07:14:37;95820.53;;;6.60
42119;BMP280;27783;42.782;23.274;2023-03-02T07:17:04;95828.31;;;6.57
42119;BMP280;27783;42.782;23.274;2023-03-02T07:19:29;95822.84;;;6.65
42119;BMP280;27783;42.782;23.274;2023-03-02T07:21:54;95822.44;;;6.63
42119;BMP280;27783;42.782;23.274;2023-03-02T07:24:20;95824.38;;;6.66
42119;BMP280;27783;42.782;23.274;2023-03-02T07:26:46;95819.69;;;6.78
42119;BMP280;27783;42.782;23.274;2023-03-02T07:29:11;95830.66;;;6.83
42119;BMP280;27783;42.782;23.274;2023-03-02T07:31:37;95820.06;;;6.77
42119;BMP280;27783;42.782;23.274;2023-03-02T07:34:02;95819.69;;;6.78
42119;BMP280;27783;42.782;23.274;2023-03-02T07:36:28;95821.59;;;6.78
42119;BMP280;27783;42.782;23.274;2023-03-02T07:38:54;95821.28;;;6.82
42119;BMP280;27783;42.782;23.274;2023-03-02T07:41:19;95821.09;;;6.94
42119;BMP280;27783;42.782;23.274;2023-03-02T07:43:44;95825.91;;;6.92
42119;BMP280;27783;42.782;23.274;2023-03-02T07:46:10;95826.03;;;6.99
42119;BMP280;27783;42.782;23.274;2023-03-02T07:48:35;95830.06;;;6.93
42119;BMP280;27783;42.782;23.274;2023-03-02T07:51:03;95829.81;;;7.01
42119;BMP280;27783;42.782;23.274;2023-03-02T07:53:29;95833.19;;;7.02
42119;BMP280;27783;42.782;23.274;2023-03-02T07:55:54;95824.63;;;7.05
42119;BMP280;27783;42.782;23.274;2023-03-02T07:58:20;95823.72;;;6.94
42119;BMP280;27783;42.782;23.274;2023-03-02T08:00:46;95825.16;;;7.14
42119;BMP280;27783;42.782;23.274;2023-03-02T08:03:11;95818.16;;;7.24
42119;BMP280;27783;42.782;23.274;2023-03-02T08:05:37;95818.44;;;7.16
42119;BMP280;27783;42.782;23.274;2023-03-02T08:08:02;95821.94;;;7.23
42119;BMP280;27783;42.782;23.274;2023-03-02T08:10:27;95817.50;;;7.27
42119;BMP280;27783;42.782;23.274;2023-03-02T08:12:53;95815.66;;;7.31
42119;BMP280;27783;42.782;23.274;2023-03-02T08:15:18;95815.31;;;7.32
42119;BMP280;27783;42.782;23.274;2023-03-02T08:17:44;95814.97;;;7.34
42119;BMP280;27783;42.782;23.274;2023-03-02T08:20:10;95817.28;;;7.39
42119;BMP280;27783;42.782;23.274;2023-03-02T08:22:35;95818.47;;;7.45
42119;BMP280;27783;42.782;23.274;2023-03-02T08:25:00;95808.69;;;7.42
42119;BMP280;27783;42.782;23.274;2023-03-02T08:27:26;95809.94;;;7.51
42119;BMP280;27783;42.782;23.274;2023-03-02T08:29:51;95808.34;;;7.43
42119;BMP280;27783;42.782;23.274;2023-03-02T08:32:18;95801.94;;;7.41
42119;BMP280;27783;42.782;23.274;2023-03-02T08:34:43;95804.94;;;7.68
42119;BMP280;27783;42.782;23.274;2023-03-02T08:37:09;95810.34;;;7.53
42119;BMP280;27783;42.782;23.274;2023-03-02T08:39:34;95812.22;;;7.52
42119;BMP280;27783;42.782;23.274;2023-03-02T08:41:59;95806.06;;;7.42
42119;BMP280;27783;42.782;23.274;2023-03-02T08:44:25;95806.28;;;7.30
42119;BMP280;27783;42.782;23.274;2023-03-02T08:46:50;95802.84;;;7.51
42119;BMP280;27783;42.782;23.274;2023-03-02T08:49:17;95800.53;;;7.47
42119;BMP280;27783;42.782;23.274;2023-03-02T08:51:43;95804.44;;;7.31
42119;BMP280;27783;42.782;23.274;2023-03-02T08:54:09;95799.25;;;7.34
42119;BMP280;27783;42.782;23.274;2023-03-02T08:56:36;95808.69;;;7.42
42119;BMP280;27783;42.782;23.274;2023-03-02T08:59:08;95804.25;;;7.46
42119;BMP280;27783;42.782;23.274;2023-03-02T09:01:36;95801.88;;;7.63
42119;BMP280;27783;42.782;23.274;2023-03-02T09:04:03;95800.31;;;7.58
42119;BMP280;27783;42.782;23.274;2023-03-02T09:06:30;95802.59;;;7.34
42119;BMP280;27783;42.782;23.274;2023-03-02T09:08:57;95801.50;;;7.35
42119;BMP280;27783;42.782;23.274;2023-03-02T09:11:22;95797.34;;;7.60
42119;BMP280;27783;42.782;23.274;2023-03-02T09:13:48;95800.69;;;7.57
42119;BMP280;27783;42.782;23.274;2023-03-02T09:16:14;95801.63;;;7.74
42119;BMP280;27783;42.782;23.274;2023-03-02T09:18:40;95795.31;;;7.79
42119;BMP280;27783;42.782;23.274;2023-03-02T09:21:06;95802.38;;;7.75
42119;BMP280;27783;42.782;23.274;2023-03-02T09:23:32;95802.00;;;7.73
42119;BMP280;27783;42.782;23.274;2023-03-02T09:25:59;95805.06;;;7.49
42119;BMP280;27783;42.782;23.274;2023-03-02T09:28:25;95803.00;;;7.36
42119;BMP280;27783;42.782;23.274;2023-03-02T09:30:52;95800.53;;;7.21
42119;BMP280;27783;42.782;23.274;2023-03-02T09:33:19;95799.16;;;7.27
42119;BMP280;27783;42.782;23.274;2023-03-02T09:35:44;95794.38;;;7.36
42119;BMP280;27783;42.782;23.274;2023-03-02T09:38:12;95791.75;;;7.36
42119;BMP280;27783;42.782;23.274;2023-03-02T09:40:55;95784.38;;;7.45
42119;BMP280;27783;42.782;23.274;2023-03-02T09:43:45;95795.28;;;7.75
42119;BMP280;27783;42.782;23.274;2023-03-02T09:46:17;95793.28;;;7.65
42119;BMP280;27783;42.782;23.274;2023-03-02T09:48:56;95793.28;;;7.37
42119;BMP280;27783;42.782;23.274;2023-03-02T09:54:12;95791.09;;;7.71
42119;BMP280;27783;42.782;23.274;2023-03-02T09:56:43;95798.78;;;7.57
42119;BMP280;27783;42.782;23.274;2023-03-02T09:59:40;95776.69;;;7.58
42119;BMP280;27783;42.782;23.274;2023-03-02T10:02:27;95792.94;;;7.67
42119;BMP280;27783;42.782;23.274;2023-03-02T10:04:55;95791.38;;;7.63
42119;BMP280;27783;42.782;23.274;2023-03-02T10:07:26;95786.03;;;7.56
42119;BMP280;27783;42.782;23.274;2023-03-02T10:09:54;95779.91;;;7.45
42119;BMP280;27783;42.782;23.274;2023-03-02T10:15:18;95781.28;;;7.36
42119;BMP280;27783;42.782;23.274;2023-03-02T10:18:00;95784.28;;;7.38
42119;BMP280;27783;42.782;23.274;2023-03-02T10:20:33;95791.94;;;7.49
42119;BMP280;27783;42.782;23.274;2023-03-02T10:23:22;95788.09;;;7.40
42119;BMP280;27783;42.782;23.274;2023-03-02T10:26:05;95785.75;;;7.35
42119;BMP280;27783;42.782;23.274;2023-03-02T10:28:41;95791.72;;;7.32
42119;BMP280;27783;42.782;23.274;2023-03-02T10:31:13;95795.53;;;7.38
42119;BMP280;27783;42.782;23.274;2023-03-02T10:33:45;95794.38;;;7.36
42119;BMP280;27783;42.782;23.274;2023-03-02T10:36:37;95775.81;;;7.48
42119;BMP280;27783;42.782;23.274;2023-03-02T10:39:15;95785.19;;;7.48
42119;BMP280;27783;42.782;23.274;2023-03-02T10:41:58;95788.09;;;7.40
42119;BMP280;27783;42.782;23.274;2023-03-02T10:44:50;95782.56;;;7.20
42119;BMP280;27783;42.782;23.274;2023-03-02T10:47:24;95778.66;;;7.36
42119;BMP280;27783;42.782;23.274;2023-03-02T10:49:52;95773.72;;;7.31
42119;BMP280;27783;42.782;23.274;2023-03-02T10:52:21;95767.41;;;7.35
42119;BMP280;27783;42.782;23.274;2023-03-02T10:55:05;95776.03;;;7.36
42119;BMP280;27783;42.782;23.274;2023-03-02T10:57:41;95765.44;;;7.29
42119;BMP280;27783;42.782;23.274;2023-03-02T11:00:20;95768.16;;;7.36
42119;BMP280;27783;42.782;23.274;2023-03-02T11:05:28;95764.97;;;7.49
42119;BMP280;27783;42.782;23.274;2023-03-02T11:08:02;95760.88;;;7.51
42119;BMP280;27783;42.782;23.274;2023-03-02T11:11:01;95749.19;;;7.78
42119;BMP280;27783;42.782;23.274;2023-03-02T11:13:37;95753.66;;;7.74
42119;BMP280;27783;42.782;23.274;2023-03-02T11:22:01;95741.59;;;7.98
42119;BMP280;27783;42.782;23.274;2023-03-02T11:24:38;95731.25;;;8.12
42119;BMP280;27783;42.782;23.274;2023-03-02T11:27:23;95733.63;;;8.27
42119;BMP280;27783;42.782;23.274;2023-03-02T11:30:18;95729.97;;;8.34
42119;BMP280;27783;42.782;23.274;2023-03-02T11:33:14;95733.47;;;8.10
42119;BMP280;27783;42.782;23.274;2023-03-02T11:35:50;95731.59;;;8.10
42119;BMP280;27783;42.782;23.274;2023-03-02T11:38:33;95729.28;;;8.02
42119;BMP280;27783;42.782;23.274;2023-03-02T11:41:27;95730.47;;;8.11
42119;BMP280;27783;42.782;23.274;2023-03-02T11:44:18;95723.03;;;8.16
42119;BMP280;27783;42.782;23.274;2023-03-02T11:46:52;95730.00;;;7.99
42119;BMP280;27783;42.782;23.274;2023-03-02T11:49:34;95727.22;;;7.89
42119;BMP280;27783;42.782;23.274;2023-03-02T11:52:02;95722.31;;;7.87
42119;BMP280;27783;42.782;23.274;2023-03-02T11:54:35;95729.81;;;7.85
42119;BMP280;27783;42.782;23.274;2023-03-02T11:57:03;95722.91;;;8.03
42119;BMP280;27783;42.782;23.274;2023-03-02T11:59:29;95725.47;;;7.96
42119;BMP280;27783;42.782;23.274;2023-03-02T12:01:56;95732.50;;;7.92
42119;BMP280;27783;42.782;23.274;2023-03-02T12:04:31;95719.75;;;7.91
42119;BMP280;27783;42.782;23.274;2023-03-02T12:07:01;95725.66;;;7.84
42119;BMP280;27783;42.782;23.274;2023-03-02T12:09:34;95733.34;;;7.96
42119;BMP280;27783;42.782;23.274;2023-03-02T12:12:32;95726.44;;;7.85
42119;BMP280;27783;42.782;23.274;2023-03-02T12:15:00;95732.34;;;7.79
42119;BMP280;27783;42.782;23.274;2023-03-02T12:20:08;95734.25;;;7.82
42119;BMP280;27783;42.782;23.274;2023-03-02T12:22:35;95730.22;;;7.91
42119;BMP280;27783;42.782;23.274;2023-03-02T12:25:05;95730.56;;;7.86
42119;BMP280;27783;42.782;23.274;2023-03-02T12:27:37;95720.75;;;7.80
42119;BMP280;27783;42.782;23.274;2023-03-02T12:33:19;95720.75;;;7.80
42119;BMP280;27783;42.782;23.274;2023-03-02T12:35:46;95715.81;;;7.75
42119;BMP280;27783;42.782;23.274;2023-03-02T12:38:21;95710.34;;;7.86
42119;BMP280;27783;42.782;23.274;2023-03-02T12:44:12;95709.47;;;7.76
42119;BMP280;27783;42.782;23.274;2023-03-02T12:46:52;95697.44;;;8.07
42119;BMP280;27783;42.782;23.274;2023-03-02T12:50:15;95695.22;;;8.09
42119;BMP280;27783;42.782;23.274;2023-03-02T12:52:35;95710.56;;;8.07
42119;BMP280;27783;42.782;23.274;2023-03-02T12:57:45;95713.44;;;8.34
42119;BMP280;27783;42.782;23.274;2023-03-02T13:00:15;95701.38;;;8.26
42119;BMP280;27783;42.782;23.274;2023-03-02T13:02:47;95707.09;;;8.35
42119;BMP280;27783;42.782;23.274;2023-03-02T13:05:26;95697.66;;;8.31
42119;BMP280;27783;42.782;23.274;2023-03-02T13:08:03;95696.97;;;8.37
42119;BMP280;27783;42.782;23.274;2023-03-02T13:13:13;95686.38;;;8.27
42119;BMP280;27783;42.782;23.274;2023-03-02T13:18:20;95676.34;;;8.39
42119;BMP280;27783;42.782;23.274;2023-03-02T13:20:48;95674.53;;;8.49
42119;BMP280;27783;42.782;23.274;2023-03-02T13:23:14;95673.41;;;8.47
42119;BMP280;27783;42.782;23.274;2023-03-02T13:26:02;95669.09;;;8.71
42119;BMP280;27783;42.782;23.274;2023-03-02T13:28:34;95669.41;;;8.63
42119;BMP280;27783;42.782;23.274;2023-03-02T13:31:21;95668.88;;;8.44
42119;BMP280;27783;42.782;23.274;2023-03-02T13:33:48;95664.78;;;8.50
42119;BMP280;27783;42.782;23.274;2023-03-02T13:36:27;95665.38;;;8.30
42119;BMP280;27783;42.782;23.274;2023-03-02T13:38:58;95656.34;;;8.24
42119;BMP280;27783;42.782;23.274;2023-03-02T13:41:32;95648.78;;;8.16
42119;BMP280;27783;42.782;23.274;2023-03-02T13:43:58;95657.13;;;8.28
42119;BMP280;27783;42.782;23.274;2023-03-02T13:46:36;95653.78;;;8.31
42119;BMP280;27783;42.782;23.274;2023-03-02T13:49:08;95648.59;;;8.38
42119;BMP280;27783;42.782;23.274;2023-03-02T13:51:42;95640.59;;;8.24
42119;BMP280;27783;42.782;23.274;2023-03-02T13:54:26;95641.97;;;8.08
42119;BMP280;27783;42.782;23.274;2023-03-02T13:56:52;95637.56;;;8.19
42119;BMP280;27783;42.782;23.274;2023-03-02T13:59:19;95641.56;;;8.03
42119;BMP280;27783;42.782;23.274;2023-03-02T14:01:47;95644.25;;;8.10
42119;BMP280;27783;42.782;23.274;2023-03-02T14:04:33;95646.81;;;8.03
42119;BMP280;27783;42.782;23.274;2023-03-02T14:07:00;95647.19;;;8.05
42119;BMP280;27783;42.782;23.274;2023-03-02T14:09:27;95642.41;;;8.17
42119;BMP280;27783;42.782;23.274;2023-03-02T14:11:55;95649.56;;;8.20
42119;BMP280;27783;42.782;23.274;2023-03-02T14:14:25;95645.72;;;8.11
42119;BMP280;27783;42.782;23.274;2023-03-02T14:16:52;95642.06;;;8.18
42119;BMP280;27783;42.782;23.274;2023-03-02T14:19:18;95645.72;;;8.11
42119;BMP280;27783;42.782;23.274;2023-03-02T14:21:52;95645.69;;;8.07
42119;BMP280;27783;42.782;23.274;2023-03-02T14:24:18;95646.34;;;7.98
42119;BMP280;27783;42.782;23.274;2023-03-02T14:26:46;95644.56;;;8.05
42119;BMP280;27783;42.782;23.274;2023-03-02T14:29:31;95652.16;;;7.81
42119;BMP280;27783;42.782;23.274;2023-03-02T14:32:08;95646.94;;;7.84
42119;BMP280;27783;42.782;23.274;2023-03-02T14:34:35;95644.81;;;7.93
42119;BMP280;27783;42.782;23.274;2023-03-02T14:37:16;95643.22;;;7.85
42119;BMP280;27783;42.782;23.274;2023-03-02T14:39:48;95641.63;;;7.78
42119;BMP280;27783;42.782;23.274;2023-03-02T14:42:24;95644.53;;;7.66
42119;BMP280;27783;42.782;23.274;2023-03-02T14:44:49;95649.81;;;7.69
42119;BMP280;27783;42.782;23.274;2023-03-02T14:47:15;95649.38;;;7.64
42119;BMP280;27783;42.782;23.274;2023-03-02T14:50:04;95644.56;;;7.69
42119;BMP280;27783;42.782;23.274;2023-03-02T14:52:34;95646.63;;;7.50
42119;BMP280;27783;42.782;23.274;2023-03-02T14:55:05;95641.84;;;7.59
42119;BMP280;27783;42.782;23.274;2023-03-02T14:57:35;95648.25;;;7.65
42119;BMP280;27783;42.782;23.274;2023-03-02T15:00:03;95650.69;;;7.48
42119;BMP280;27783;42.782;23.274;2023-03-02T15:02:29;95648.06;;;7.48
42119;BMP280;27783;42.782;23.274;2023-03-02T15:04:55;95653.34;;;7.51